sensor_id;sensor_type;location;lat;lon;timestamp;pressure;altitude;pressure_sealevel;temperature;humidity
62849;BME280;48941;49.516;8.286;2022-10-16T00:01:32;100139.75;;;15.50;100.00
62849;BME280;48941;49.516;8.286;2022-10-16T00:04:02;100136.25;;;15.50;100.00
62849;BME280;48941;49.516;8.286;2022-10-16T00:06:30;100131.03;;;15.48;100.00
62849;BME280;48941;49.516;8.286;2022-10-16T00:08:59;100128.50;;;15.47;100.00
62849;BME280;48941;49.516;8.286;2022-10-16T00:11:28;100121.47;;;15.46;100.00
62849;BME280;48941;49.516;8.286;2022-10-16T00:13:58;100119.09;;;15.43;100.00
62849;BME280;48941;49.516;8.286;2022-10-16T00:16:26;100139.72;;;15.42;100.00
62849;BME280;48941;49.516;8.286;2022-10-16T00:18:54;100150.47;;;15.42;100.00
62849;BME280;48941;49.516;8.286;2022-10-16T00:21:25;100156.81;;;15.41;100.00
62849;BME280;48941;49.516;8.286;2022-10-16T00:23:55;100147.78;;;15.42;100.00
62849;BME280;48941;49.516;8.286;2022-10-16T00:26:23;100138.38;;;15.38;100.00
62849;BME280;48941;49.516;8.286;2022-10-16T00:28:51;100155.31;;;15.39;100.00
62849;BME280;48941;49.516;8.286;2022-10-16T00:31:21;100148.09;;;15.39;100.00
62849;BME280;48941;49.516;8.286;2022-10-16T00:33:49;100155.16;;;15.40;100.00
62849;BME280;48941;49.516;8.286;2022-10-16T00:36:19;100155.31;;;15.39;100.00
62849;BME280;48941;49.516;8.286;2022-10-16T00:38:50;100149.09;;;15.38;100.00
62849;BME280;48941;49.516;8.286;2022-10-16T00:41:19;100158.81;;;15.39;100.00
62849;BME280;48941;49.516;8.286;2022-10-16T00:43:49;100170.22;;;15.41;100.00
62849;BME280;48941;49.516;8.286;2022-10-16T00:46:19;100175.59;;;15.41;100.00
62849;BME280;48941;49.516;8.286;2022-10-16T00:48:51;100169.41;;;15.41;100.00
62849;BME280;48941;49.516;8.286;2022-10-16T00:51:23;100167.72;;;15.40;100.00
62849;BME280;48941;49.516;8.286;2022-10-16T00:53:55;100166.72;;;15.41;100.00
62849;BME280;48941;49.516;8.286;2022-10-16T00:56:23;100156.13;;;15.39;100.00
62849;BME280;48941;49.516;8.286;2022-10-16T00:58:50;100147.41;;;15.37;100.00
62849;BME280;48941;49.516;8.286;2022-10-16T01:01:18;100168.72;;;15.39;100.00
62849;BME280;48941;49.516;8.286;2022-10-16T01:03:46;100169.56;;;15.39;100.00
62849;BME280;48941;49.516;8.286;2022-10-16T01:06:23;100179.59;;;15.37;100.00
62849;BME280;48941;49.516;8.286;2022-10-16T01:09:02;100170.03;;;15.34;100.00
62849;BME280;48941;49.516;8.286;2022-10-16T01:11:38;100162.28;;;15.31;100.00
62849;BME280;48941;49.516;8.286;2022-10-16T01:14:14;100161.63;;;15.29;100.00
62849;BME280;48941;49.516;8.286;2022-10-16T01:16:49;100166.97;;;15.29;100.00
62849;BME280;48941;49.516;8.286;2022-10-16T01:19:30;100171.50;;;15.29;100.00
62849;BME280;48941;49.516;8.286;2022-10-16T01:22:03;100172.34;;;15.29;100.00
62849;BME280;48941;49.516;8.286;2022-10-16T01:24:37;100179.72;;;15.27;100.00
62849;BME280;48941;49.516;8.286;2022-10-16T01:27:09;100183.09;;;15.29;100.00
62849;BME280;48941;49.516;8.286;2022-10-16T01:29:40;100180.59;;;15.28;100.00
62849;BME280;48941;49.516;8.286;2022-10-16T01:32:16;100182.41;;;15.27;100.00
62849;BME280;48941;49.516;8.286;2022-10-16T01:34:49;100188.44;;;15.29;100.00
62849;BME280;48941;49.516;8.286;2022-10-16T01:37:32;100190.16;;;15.30;100.00
62849;BME280;48941;49.516;8.286;2022-10-16T01:40:03;100193.50;;;15.32;100.00
62849;BME280;48941;49.516;8.286;2022-10-16T01:42:36;100188.97;;;15.33;100.00
62849;BME280;48941;49.516;8.286;2022-10-16T01:45:07;100178.41;;;15.31;100.00
62849;BME280;48941;49.516;8.286;2022-10-16T01:47:39;100186.63;;;15.30;100.00
62849;BME280;48941;49.516;8.286;2022-10-16T01:50:08;100187.63;;;15.29;100.00
62849;BME280;48941;49.516;8.286;2022-10-16T01:52:40;100183.25;;;15.28;100.00
62849;BME280;48941;49.516;8.286;2022-10-16T01:55:14;100178.72;;;15.28;100.00
62849;BME280;48941;49.516;8.286;2022-10-16T01:57:48;100181.25;;;15.30;100.00
62849;BME280;48941;49.516;8.286;2022-10-16T02:00:19;100176.06;;;15.28;100.00
62849;BME280;48941;49.516;8.286;2022-10-16T02:02:49;100174.53;;;15.26;100.00
62849;BME280;48941;49.516;8.286;2022-10-16T02:05:23;100180.59;;;15.28;100.00
62849;BME280;48941;49.516;8.286;2022-10-16T02:07:53;100176.88;;;15.29;100.00
62849;BME280;48941;49.516;8.286;2022-10-16T02:10:21;100173.91;;;15.32;100.00
62849;BME280;48941;49.516;8.286;2022-10-16T02:12:56;100171.22;;;15.32;100.00
62849;BME280;48941;49.516;8.286;2022-10-16T02:15:26;100176.56;;;15.32;100.00
62849;BME280;48941;49.516;8.286;2022-10-16T02:17:54;100184.44;;;15.33;100.00
62849;BME280;48941;49.516;8.286;2022-10-16T02:20:25;100181.75;;;15.33;100.00
62849;BME280;48941;49.516;8.286;2022-10-16T02:22:54;100177.41;;;15.32;100.00
62849;BME280;48941;49.516;8.286;2022-10-16T02:25:27;100186.97;;;15.35;100.00
62849;BME280;48941;49.516;8.286;2022-10-16T02:28:01;100174.88;;;15.31;100.00
62849;BME280;48941;49.516;8.286;2022-10-16T02:30:34;100180.09;;;15.32;100.00
62849;BME280;48941;49.516;8.286;2022-10-16T02:33:07;100171.91;;;15.34;100.00
62849;BME280;48941;49.516;8.286;2022-10-16T02:35:36;100180.78;;;15.34;100.00
62849;BME280;48941;49.516;8.286;2022-10-16T02:38:04;100183.47;;;15.34;100.00
62849;BME280;48941;49.516;8.286;2022-10-16T02:40:33;100182.63;;;15.34;100.00
62849;BME280;48941;49.516;8.286;2022-10-16T02:43:03;100172.72;;;15.34;100.00
62849;BME280;48941;49.516;8.286;2022-10-16T02:45:32;100178.94;;;15.35;100.00
62849;BME280;48941;49.516;8.286;2022-10-16T02:47:59;100179.94;;;15.34;100.00
62849;BME280;48941;49.516;8.286;2022-10-16T02:50:27;100191.66;;;15.33;100.00
62849;BME280;48941;49.516;8.286;2022-10-16T02:52:55;100190.81;;;15.32;100.00
62849;BME280;48941;49.516;8.286;2022-10-16T02:55:23;100188.97;;;15.33;100.00
62849;BME280;48941;49.516;8.286;2022-10-16T02:57:50;100188.97;;;15.33;100.00
62849;BME280;48941;49.516;8.286;2022-10-16T03:00:20;100184.78;;;15.30;100.00
62849;BME280;48941;49.516;8.286;2022-10-16T03:02:48;100187.47;;;15.30;100.00
62849;BME280;48941;49.516;8.286;2022-10-16T03:05:16;100184.78;;;15.30;100.00
62849;BME280;48941;49.516;8.286;2022-10-16T03:07:44;100179.41;;;15.30;100.00
62849;BME280;48941;49.516;8.286;2022-10-16T03:10:12;100187.63;;;15.29;100.00
62849;BME280;48941;49.516;8.286;2022-10-16T03:12:39;100188.63;;;15.28;100.00
62849;BME280;48941;49.516;8.286;2022-10-16T03:15:08;100193.13;;;15.27;100.00
62849;BME280;48941;49.516;8.286;2022-10-16T03:17:37;100181.56;;;15.27;100.00
62849;BME280;48941;49.516;8.286;2022-10-16T03:20:05;100186.25;;;15.25;100.00
62849;BME280;48941;49.516;8.286;2022-10-16T03:22:33;100191.78;;;15.23;100.00
62849;BME280;48941;49.516;8.286;2022-10-16T03:25:01;100184.88;;;15.21;100.00
62849;BME280;48941;49.516;8.286;2022-10-16T03:27:29;100195.63;;;15.21;100.00
62849;BME280;48941;49.516;8.286;2022-10-16T03:29:56;100192.25;;;15.19;100.00
62849;BME280;48941;49.516;8.286;2022-10-16T03:32:24;100192.41;;;15.17;100.00
62849;BME280;48941;49.516;8.286;2022-10-16T03:34:53;100198.59;;;15.18;100.00
62849;BME280;48941;49.516;8.286;2022-10-16T03:37:23;100204.16;;;15.16;100.00
62849;BME280;48941;49.516;8.286;2022-10-16T03:39:51;100213.19;;;15.15;100.00
62849;BME280;48941;49.516;8.286;2022-10-16T03:42:19;100206.16;;;15.14;100.00
62849;BME280;48941;49.516;8.286;2022-10-16T03:44:46;100206.44;;;15.11;100.00
62849;BME280;48941;49.516;8.286;2022-10-16T03:47:14;100211.13;;;15.09;100.00
62849;BME280;48941;49.516;8.286;2022-10-16T03:49:42;100214.97;;;15.06;100.00
62849;BME280;48941;49.516;8.286;2022-10-16T03:52:11;100215.13;;;15.05;100.00
62849;BME280;48941;49.516;8.286;2022-10-16T03:54:38;100219.66;;;15.04;100.00
62849;BME280;48941;49.516;8.286;2022-10-16T03:57:06;100215.28;;;15.03;100.00
62849;BME280;48941;49.516;8.286;2022-10-16T03:59:34;100211.06;;;15.01;100.00
62849;BME280;48941;49.516;8.286;2022-10-16T04:02:02;100226.31;;;15.00;100.00
62849;BME280;48941;49.516;8.286;2022-10-16T04:04:29;100223.63;;;15.00;100.00
62849;BME280;48941;49.516;8.286;2022-10-16T04:06:57;100213.06;;;14.99;100.00
62849;BME280;48941;49.516;8.286;2022-10-16T04:09:26;100209.53;;;14.98;100.00
62849;BME280;48941;49.516;8.286;2022-10-16T04:11:54;100205.69;;;15.01;100.00
62849;BME280;48941;49.516;8.286;2022-10-16T04:14:22;100213.59;;;15.02;100.00
62849;BME280;48941;49.516;8.286;2022-10-16T04:16:49;100222.47;;;15.03;100.00
62849;BME280;48941;49.516;8.286;2022-10-16T04:19:17;100225.16;;;15.03;100.00
62849;BME280;48941;49.516;8.286;2022-10-16T04:21:45;100218.28;;;15.00;100.00
62849;BME280;48941;49.516;8.286;2022-10-16T04:24:13;100209.53;;;14.98;100.00
62849;BME280;48941;49.516;8.286;2022-10-16T04:26:42;100205.50;;;14.94;100.00
62849;BME280;48941;49.516;8.286;2022-10-16T04:29:09;100213.34;;;14.96;100.00
62849;BME280;48941;49.516;8.286;2022-10-16T04:31:37;100220.56;;;14.95;100.00
62849;BME280;48941;49.516;8.286;2022-10-16T04:34:05;100226.25;;;14.92;100.00
62849;BME280;48941;49.516;8.286;2022-10-16T04:36:32;100226.09;;;14.93;100.00
62849;BME280;48941;49.516;8.286;2022-10-16T04:39:00;100225.94;;;14.95;100.00
62849;BME280;48941;49.516;8.286;2022-10-16T04:41:28;100223.41;;;14.93;100.00
62849;BME280;48941;49.516;8.286;2022-10-16T04:43:57;100222.41;;;14.94;100.00
62849;BME280;48941;49.516;8.286;2022-10-16T04:46:25;100220.56;;;14.95;100.00
62849;BME280;48941;49.516;8.286;2022-10-16T04:48:52;100215.06;;;14.97;100.00
62849;BME280;48941;49.516;8.286;2022-10-16T04:51:20;100215.06;;;14.97;100.00
62849;BME280;48941;49.516;8.286;2022-10-16T04:53:48;100214.38;;;14.94;100.00
62849;BME280;48941;49.516;8.286;2022-10-16T04:56:15;100204.63;;;14.93;100.00
62849;BME280;48941;49.516;8.286;2022-10-16T04:58:43;100212.69;;;14.93;100.00
62849;BME280;48941;49.516;8.286;2022-10-16T05:01:12;100211.00;;;14.92;100.00
62849;BME280;48941;49.516;8.286;2022-10-16T05:03:40;100219.88;;;14.93;100.00
62849;BME280;48941;49.516;8.286;2022-10-16T05:06:08;100217.19;;;14.93;100.00
62849;BME280;48941;49.516;8.286;2022-10-16T05:08:35;100207.50;;;14.92;100.00
62849;BME280;48941;49.516;8.286;2022-10-16T05:11:03;100203.78;;;14.93;100.00
62849;BME280;48941;49.516;8.286;2022-10-16T05:13:31;100196.75;;;14.92;100.00
62849;BME280;48941;49.516;8.286;2022-10-16T05:15:59;100191.22;;;14.93;100.00
62849;BME280;48941;49.516;8.286;2022-10-16T05:18:28;100184.19;;;14.92;100.00
62849;BME280;48941;49.516;8.286;2022-10-16T05:20:55;100192.22;;;14.92;100.00
62849;BME280;48941;49.516;8.286;2022-10-16T05:23:23;100202.13;;;14.92;100.00
62849;BME280;48941;49.516;8.286;2022-10-16T05:25:54;100212.69;;;14.93;100.00
62849;BME280;48941;49.516;8.286;2022-10-16T05:28:24;100221.72;;;14.92;100.00
62849;BME280;48941;49.516;8.286;2022-10-16T05:30:52;100221.72;;;14.92;100.00
62849;BME280;48941;49.516;8.286;2022-10-16T05:33:23;100230.63;;;14.93;100.00
62849;BME280;48941;49.516;8.286;2022-10-16T05:35:52;100235.00;;;14.94;100.00
62849;BME280;48941;49.516;8.286;2022-10-16T05:38:20;100250.06;;;14.95;100.00
62849;BME280;48941;49.516;8.286;2022-10-16T05:40:51;100249.91;;;14.97;100.00
62849;BME280;48941;49.516;8.286;2022-10-16T05:43:19;100238.34;;;14.96;100.00
62849;BME280;48941;49.516;8.286;2022-10-16T05:45:53;100242.84;;;14.96;100.00
62849;BME280;48941;49.516;8.286;2022-10-16T05:48:21;100242.03;;;14.95;100.00
62849;BME280;48941;49.516;8.286;2022-10-16T05:50:57;100235.97;;;14.93;100.00
62849;BME280;48941;49.516;8.286;2022-10-16T05:53:27;100244.84;;;14.93;100.00
62849;BME280;48941;49.516;8.286;2022-10-16T05:55:55;100250.06;;;14.95;100.00
62849;BME280;48941;49.516;8.286;2022-10-16T05:58:24;100252.75;;;14.95;100.00
62849;BME280;48941;49.516;8.286;2022-10-16T06:00:53;100273.53;;;14.93;100.00
62849;BME280;48941;49.516;8.286;2022-10-16T06:03:21;100261.81;;;14.94;100.00
62849;BME280;48941;49.516;8.286;2022-10-16T06:05:50;100269.00;;;14.93;100.00
62849;BME280;48941;49.516;8.286;2022-10-16T06:08:21;100268.16;;;14.93;100.00
62849;BME280;48941;49.516;8.286;2022-10-16T06:10:57;100282.56;;;14.92;100.00
62849;BME280;48941;49.516;8.286;2022-10-16T06:13:27;100279.56;;;14.95;100.00
62849;BME280;48941;49.516;8.286;2022-10-16T06:15:57;100271.66;;;14.93;100.00
62849;BME280;48941;49.516;8.286;2022-10-16T06:18:26;100273.53;;;14.93;100.00
62849;BME280;48941;49.516;8.286;2022-10-16T06:20:54;100267.31;;;14.92;100.00
62849;BME280;48941;49.516;8.286;2022-10-16T06:23:24;100278.03;;;14.92;100.00
62849;BME280;48941;49.516;8.286;2022-10-16T06:25:52;100284.25;;;14.93;100.00
62849;BME280;48941;49.516;8.286;2022-10-16T06:28:20;100272.53;;;14.94;100.00
62849;BME280;48941;49.516;8.286;2022-10-16T06:30:47;100285.94;;;14.94;100.00
62849;BME280;48941;49.516;8.286;2022-10-16T06:33:15;100293.81;;;14.96;100.00
62849;BME280;48941;49.516;8.286;2022-10-16T06:35:43;100305.41;;;14.96;100.00
62849;BME280;48941;49.516;8.286;2022-10-16T06:38:10;100294.81;;;14.94;100.00
62849;BME280;48941;49.516;8.286;2022-10-16T06:40:39;100288.44;;;14.96;100.00
62849;BME280;48941;49.516;8.286;2022-10-16T06:43:07;100290.97;;;14.97;100.00
62849;BME280;48941;49.516;8.286;2022-10-16T06:45:35;100293.53;;;14.99;100.00
62849;BME280;48941;49.516;8.286;2022-10-16T06:48:03;100294.22;;;15.01;100.00
62849;BME280;48941;49.516;8.286;2022-10-16T06:50:30;100299.44;;;15.02;100.00
62849;BME280;48941;49.516;8.286;2022-10-16T06:52:58;100299.44;;;15.02;100.00
62849;BME280;48941;49.516;8.286;2022-10-16T06:55:26;100298.59;;;15.02;100.00
62849;BME280;48941;49.516;8.286;2022-10-16T06:57:55;100306.47;;;15.03;100.00
62849;BME280;48941;49.516;8.286;2022-10-16T07:00:23;100301.78;;;15.05;100.00
62849;BME280;48941;49.516;8.286;2022-10-16T07:02:51;100308.00;;;15.06;100.00
62849;BME280;48941;49.516;8.286;2022-10-16T07:05:18;100316.75;;;15.08;100.00
62849;BME280;48941;49.516;8.286;2022-10-16T07:07:46;100323.78;;;15.09;100.00
62849;BME280;48941;49.516;8.286;2022-10-16T07:10:14;100331.69;;;15.10;100.00
62849;BME280;48941;49.516;8.286;2022-10-16T07:12:42;100333.34;;;15.11;100.00
62849;BME280;48941;49.516;8.286;2022-10-16T07:15:12;100338.56;;;15.13;100.00
62849;BME280;48941;49.516;8.286;2022-10-16T07:17:40;100341.09;;;15.14;100.00
62849;BME280;48941;49.516;8.286;2022-10-16T07:20:09;100347.31;;;15.15;100.00
62849;BME280;48941;49.516;8.286;2022-10-16T07:22:37;100354.38;;;15.16;100.00
62849;BME280;48941;49.516;8.286;2022-10-16T07:25:05;100359.56;;;15.18;100.00
62849;BME280;48941;49.516;8.286;2022-10-16T07:27:33;100355.75;;;15.20;100.00
62849;BME280;48941;49.516;8.286;2022-10-16T07:30:01;100365.31;;;15.23;100.00
62849;BME280;48941;49.516;8.286;2022-10-16T07:32:35;100355.28;;;15.25;100.00
62849;BME280;48941;49.516;8.286;2022-10-16T07:35:04;100366.00;;;15.25;100.00
62849;BME280;48941;49.516;8.286;2022-10-16T07:37:32;100364.16;;;15.25;100.00
62849;BME280;48941;49.516;8.286;2022-10-16T07:39:59;100363.19;;;15.26;100.00
62849;BME280;48941;49.516;8.286;2022-10-16T07:42:27;100365.88;;;15.26;100.00
62849;BME280;48941;49.516;8.286;2022-10-16T07:44:55;100363.88;;;15.28;100.00
62849;BME280;48941;49.516;8.286;2022-10-16T07:47:23;100378.97;;;15.29;100.00
62849;BME280;48941;49.516;8.286;2022-10-16T07:49:52;100381.50;;;15.31;100.00
62849;BME280;48941;49.516;8.286;2022-10-16T07:52:20;100381.19;;;15.34;100.00
62849;BME280;48941;49.516;8.286;2022-10-16T07:54:48;100384.38;;;15.38;100.00
62849;BME280;48941;49.516;8.286;2022-10-16T07:57:16;100376.19;;;15.39;100.00
62849;BME280;48941;49.516;8.286;2022-10-16T07:59:45;100377.91;;;15.40;100.00
62849;BME280;48941;49.516;8.286;2022-10-16T08:02:13;100401.03;;;15.41;100.00
62849;BME280;48941;49.516;8.286;2022-10-16T08:04:41;100399.22;;;15.42;100.00
62849;BME280;48941;49.516;8.286;2022-10-16T08:07:10;100391.00;;;15.43;100.00
62849;BME280;48941;49.516;8.286;2022-10-16T08:09:38;100395.66;;;15.41;100.00
62849;BME280;48941;49.516;8.286;2022-10-16T08:12:05;100396.53;;;15.42;100.00
62849;BME280;48941;49.516;8.286;2022-10-16T08:14:33;100399.03;;;15.43;100.00
62849;BME280;48941;49.516;8.286;2022-10-16T08:17:01;100419.69;;;15.43;100.00
62849;BME280;48941;49.516;8.286;2022-10-16T08:19:30;100425.03;;;15.43;100.00
62849;BME280;48941;49.516;8.286;2022-10-16T08:22:00;100435.09;;;15.41;100.00
62849;BME280;48941;49.516;8.286;2022-10-16T08:24:30;100443.97;;;15.41;100.00
62849;BME280;48941;49.516;8.286;2022-10-16T08:26:58;100453.88;;;15.41;100.00
62849;BME280;48941;49.516;8.286;2022-10-16T08:29:26;100474.03;;;15.45;100.00
62849;BME280;48941;49.516;8.286;2022-10-16T08:31:54;100490.84;;;15.47;100.00
62849;BME280;48941;49.516;8.286;2022-10-16T08:34:22;100498.53;;;15.42;100.00
62849;BME280;48941;49.516;8.286;2022-10-16T08:36:49;100461.38;;;15.37;100.00
62849;BME280;48941;49.516;8.286;2022-10-16T08:39:20;100446.44;;;15.34;100.00
62849;BME280;48941;49.516;8.286;2022-10-16T08:42:03;100450.09;;;15.33;100.00
62849;BME280;48941;49.516;8.286;2022-10-16T08:44:57;100447.28;;;15.35;100.00
62849;BME280;48941;49.516;8.286;2022-10-16T08:47:35;100461.25;;;15.39;100.00
62849;BME280;48941;49.516;8.286;2022-10-16T08:50:10;100449.19;;;15.43;100.00
62849;BME280;48941;49.516;8.286;2022-10-16T08:52:40;100451.59;;;15.46;100.00
62849;BME280;48941;49.516;8.286;2022-10-16T08:55:19;100460.34;;;15.48;100.00
62849;BME280;48941;49.516;8.286;2022-10-16T08:57:52;100464.06;;;15.55;100.00
62849;BME280;48941;49.516;8.286;2022-10-16T09:00:20;100474.38;;;15.60;100.00
62849;BME280;48941;49.516;8.286;2022-10-16T09:02:53;100459.47;;;15.65;100.00
62849;BME280;48941;49.516;8.286;2022-10-16T09:05:41;100464.78;;;15.75;100.00
62849;BME280;48941;49.516;8.286;2022-10-16T09:08:19;100473.44;;;15.87;100.00
62849;BME280;48941;49.516;8.286;2022-10-16T09:10:57;100481.41;;;15.97;100.00
62849;BME280;48941;49.516;8.286;2022-10-16T09:13:29;100474.78;;;16.09;100.00
62849;BME280;48941;49.516;8.286;2022-10-16T09:16:10;100467.84;;;16.24;100.00
62849;BME280;48941;49.516;8.286;2022-10-16T09:18:45;100477.19;;;16.38;100.00
62849;BME280;48941;49.516;8.286;2022-10-16T09:21:19;100483.53;;;16.63;100.00
62849;BME280;48941;49.516;8.286;2022-10-16T09:23:50;100479.63;;;16.84;100.00
62849;BME280;48941;49.516;8.286;2022-10-16T09:26:18;100487.66;;;17.18;100.00
62849;BME280;48941;49.516;8.286;2022-10-16T09:28:52;100498.16;;;17.38;100.00
62849;BME280;48941;49.516;8.286;2022-10-16T09:31:22;100488.78;;;17.66;100.00
62849;BME280;48941;49.516;8.286;2022-10-16T09:33:53;100501.06;;;17.77;100.00
62849;BME280;48941;49.516;8.286;2022-10-16T09:36:22;100499.09;;;17.87;100.00
62849;BME280;48941;49.516;8.286;2022-10-16T09:39:02;100508.00;;;17.96;100.00
62849;BME280;48941;49.516;8.286;2022-10-16T09:41:30;100519.31;;;18.00;100.00
62849;BME280;48941;49.516;8.286;2022-10-16T09:44:04;100505.47;;;18.03;100.00
62849;BME280;48941;49.516;8.286;2022-10-16T09:46:34;100505.97;;;18.23;100.00
62849;BME280;48941;49.516;8.286;2022-10-16T09:49:03;100509.31;;;18.49;100.00
62849;BME280;48941;49.516;8.286;2022-10-16T09:51:33;100504.53;;;18.68;100.00
62849;BME280;48941;49.516;8.286;2022-10-16T09:54:13;100511.41;;;18.87;100.00
62849;BME280;48941;49.516;8.286;2022-10-16T09:56:41;100498.34;;;19.15;100.00
62849;BME280;48941;49.516;8.286;2022-10-16T09:59:14;100505.84;;;19.28;100.00
62849;BME280;48941;49.516;8.286;2022-10-16T10:01:47;100502.66;;;19.56;100.00
62849;BME280;48941;49.516;8.286;2022-10-16T10:04:16;100504.13;;;19.89;99.95
62849;BME280;48941;49.516;8.286;2022-10-16T10:06:45;100506.28;;;20.32;94.87
62849;BME280;48941;49.516;8.286;2022-10-16T10:09:17;100504.47;;;20.62;94.55
62849;BME280;48941;49.516;8.286;2022-10-16T10:11:52;100510.00;;;20.84;92.84
62849;BME280;48941;49.516;8.286;2022-10-16T10:14:25;100520.50;;;21.08;89.99
62849;BME280;48941;49.516;8.286;2022-10-16T10:17:09;100520.38;;;21.32;87.44
62849;BME280;48941;49.516;8.286;2022-10-16T10:19:38;100505.72;;;21.41;88.88
62849;BME280;48941;49.516;8.286;2022-10-16T10:22:17;100518.16;;;21.72;86.90
62849;BME280;48941;49.516;8.286;2022-10-16T10:24:46;100511.94;;;21.99;84.65
62849;BME280;48941;49.516;8.286;2022-10-16T10:27:25;100510.59;;;21.88;85.56
62849;BME280;48941;49.516;8.286;2022-10-16T10:30:01;100514.03;;;21.76;85.38
62849;BME280;48941;49.516;8.286;2022-10-16T10:32:37;100516.22;;;21.65;85.88
62849;BME280;48941;49.516;8.286;2022-10-16T10:35:15;100513.69;;;21.64;84.17
62849;BME280;48941;49.516;8.286;2022-10-16T10:37:58;100505.50;;;21.57;84.60
62849;BME280;48941;49.516;8.286;2022-10-16T10:40:44;100504.44;;;21.58;84.86
62849;BME280;48941;49.516;8.286;2022-10-16T10:43:26;100506.16;;;21.59;85.27
62849;BME280;48941;49.516;8.286;2022-10-16T10:46:04;100504.63;;;21.57;83.79
62849;BME280;48941;49.516;8.286;2022-10-16T10:48:49;100507.03;;;21.45;83.23
62849;BME280;48941;49.516;8.286;2022-10-16T10:51:22;100503.09;;;21.47;83.35
62849;BME280;48941;49.516;8.286;2022-10-16T10:53:57;100502.84;;;21.64;82.84
62849;BME280;48941;49.516;8.286;2022-10-16T10:56:41;100512.22;;;21.83;81.92
62849;BME280;48941;49.516;8.286;2022-10-16T10:59:40;100506.53;;;21.99;80.63
62849;BME280;48941;49.516;8.286;2022-10-16T11:02:18;100512.00;;;22.27;78.26
62849;BME280;48941;49.516;8.286;2022-10-16T11:07:53;100503.63;;;22.85;76.85
62849;BME280;48941;49.516;8.286;2022-10-16T11:10:24;100505.84;;;23.10;74.40
62849;BME280;48941;49.516;8.286;2022-10-16T11:12:58;100505.28;;;23.28;73.50
62849;BME280;48941;49.516;8.286;2022-10-16T11:15:30;100511.41;;;23.43;73.29
62849;BME280;48941;49.516;8.286;2022-10-16T11:18:06;100509.75;;;23.56;72.16
62849;BME280;48941;49.516;8.286;2022-10-16T11:20:37;100511.69;;;23.69;72.23
62849;BME280;48941;49.516;8.286;2022-10-16T11:23:14;100510.88;;;23.88;72.27
62849;BME280;48941;49.516;8.286;2022-10-16T11:25:43;100502.94;;;24.00;71.47
62849;BME280;48941;49.516;8.286;2022-10-16T11:28:15;100502.53;;;24.23;71.05
62849;BME280;48941;49.516;8.286;2022-10-16T11:30:47;100501.28;;;24.25;70.66
62849;BME280;48941;49.516;8.286;2022-10-16T11:33:25;100502.75;;;24.21;69.19
62849;BME280;48941;49.516;8.286;2022-10-16T11:36:03;100497.94;;;24.37;69.40
62849;BME280;48941;49.516;8.286;2022-10-16T11:38:37;100499.78;;;24.50;69.56
62849;BME280;48941;49.516;8.286;2022-10-16T11:41:14;100498.53;;;24.65;69.66
62849;BME280;48941;49.516;8.286;2022-10-16T11:43:48;100500.63;;;24.63;69.60
62849;BME280;48941;49.516;8.286;2022-10-16T11:46:21;100499.13;;;24.81;66.37
62849;BME280;48941;49.516;8.286;2022-10-16T11:48:57;100491.56;;;24.83;68.45
62849;BME280;48941;49.516;8.286;2022-10-16T11:51:32;100482.06;;;25.05;67.01
62849;BME280;48941;49.516;8.286;2022-10-16T11:54:07;100476.00;;;25.03;67.17
62849;BME280;48941;49.516;8.286;2022-10-16T11:56:38;100483.16;;;24.91;66.58
62849;BME280;48941;49.516;8.286;2022-10-16T11:59:13;100492.06;;;24.67;67.62
62849;BME280;48941;49.516;8.286;2022-10-16T12:01:48;100489.53;;;24.38;70.48
62849;BME280;48941;49.516;8.286;2022-10-16T12:04:23;100489.78;;;24.03;72.00
62849;BME280;48941;49.516;8.286;2022-10-16T12:06:58;100492.28;;;23.85;71.26
62849;BME280;48941;49.516;8.286;2022-10-16T12:09:30;100476.75;;;23.65;71.82
62849;BME280;48941;49.516;8.286;2022-10-16T12:11:59;100473.56;;;23.42;72.83
62849;BME280;48941;49.516;8.286;2022-10-16T12:14:45;100474.94;;;23.11;75.26
62849;BME280;48941;49.516;8.286;2022-10-16T12:17:35;100478.56;;;22.90;76.06
62849;BME280;48941;49.516;8.286;2022-10-16T12:20:27;100481.44;;;22.82;75.17
62849;BME280;48941;49.516;8.286;2022-10-16T12:22:57;100472.66;;;22.73;75.05
62849;BME280;48941;49.516;8.286;2022-10-16T12:25:27;100483.63;;;22.58;76.35
62849;BME280;48941;49.516;8.286;2022-10-16T12:28:04;100483.78;;;22.50;76.07
62849;BME280;48941;49.516;8.286;2022-10-16T12:30:34;100483.09;;;22.41;76.61
62849;BME280;48941;49.516;8.286;2022-10-16T12:33:04;100486.94;;;22.25;76.93
62849;BME280;48941;49.516;8.286;2022-10-16T12:35:42;100489.78;;;22.17;77.88
62849;BME280;48941;49.516;8.286;2022-10-16T12:38:17;100485.63;;;22.21;77.78
62849;BME280;48941;49.516;8.286;2022-10-16T12:40:46;100480.84;;;22.23;79.99
62849;BME280;48941;49.516;8.286;2022-10-16T12:43:43;100473.31;;;22.19;82.06
62849;BME280;48941;49.516;8.286;2022-10-16T12:46:24;100461.31;;;22.06;81.83
62849;BME280;48941;49.516;8.286;2022-10-16T12:48:52;100468.16;;;22.02;80.36
62849;BME280;48941;49.516;8.286;2022-10-16T12:51:36;100470.06;;;21.80;83.02
62849;BME280;48941;49.516;8.286;2022-10-16T12:54:11;100475.09;;;21.62;83.89
62849;BME280;48941;49.516;8.286;2022-10-16T12:56:50;100478.91;;;21.46;85.71
62849;BME280;48941;49.516;8.286;2022-10-16T12:59:31;100476.47;;;21.36;82.92
62849;BME280;48941;49.516;8.286;2022-10-16T13:02:28;100477.81;;;21.25;86.17
62849;BME280;48941;49.516;8.286;2022-10-16T13:05:16;100481.66;;;21.16;86.54
62849;BME280;48941;49.516;8.286;2022-10-16T13:08:00;100479.81;;;21.02;87.00